sensor_id;sensor_type;location;lat;lon;timestamp;P1;durP1;ratioP1;P2;durP2;ratioP2
67747;SDS011;54543;50.712;6.070;2022-07-29T00:02:10;2.13;;;1.30;;
67747;SDS011;54543;50.712;6.070;2022-07-29T00:04:36;3.42;;;2.10;;
67747;SDS011;54543;50.712;6.070;2022-07-29T00:07:02;3.65;;;1.85;;
67747;SDS011;54543;50.712;6.070;2022-07-29T00:09:29;2.80;;;1.50;;
67747;SDS011;54543;50.712;6.070;2022-07-29T00:11:56;2.55;;;1.27;;
67747;SDS011;54543;50.712;6.070;2022-07-29T00:14:24;4.65;;;1.30;;
67747;SDS011;54543;50.712;6.070;2022-07-29T00:16:50;3.78;;;1.30;;
67747;SDS011;54543;50.712;6.070;2022-07-29T00:19:16;3.05;;;1.40;;
67747;SDS011;54543;50.712;6.070;2022-07-29T00:21:41;2.20;;;1.40;;
67747;SDS011;54543;50.712;6.070;2022-07-29T00:24:07;2.38;;;1.30;;
67747;SDS011;54543;50.712;6.070;2022-07-29T00:26:32;5.38;;;1.30;;
67747;SDS011;54543;50.712;6.070;2022-07-29T00:28:59;3.72;;;1.30;;
67747;SDS011;54543;50.712;6.070;2022-07-29T00:31:26;3.42;;;1.40;;
67747;SDS011;54543;50.712;6.070;2022-07-29T00:33:52;3.03;;;1.27;;
67747;SDS011;54543;50.712;6.070;2022-07-29T00:36:18;3.58;;;1.50;;
67747;SDS011;54543;50.712;6.070;2022-07-29T00:38:46;3.40;;;1.50;;
67747;SDS011;54543;50.712;6.070;2022-07-29T00:41:12;2.20;;;1.23;;
67747;SDS011;54543;50.712;6.070;2022-07-29T00:43:37;3.72;;;1.40;;
67747;SDS011;54543;50.712;6.070;2022-07-29T00:46:03;3.20;;;1.30;;
67747;SDS011;54543;50.712;6.070;2022-07-29T00:48:29;2.75;;;1.35;;
67747;SDS011;54543;50.712;6.070;2022-07-29T00:50:54;2.88;;;1.40;;
67747;SDS011;54543;50.712;6.070;2022-07-29T00:53:22;8.73;;;1.48;;
67747;SDS011;54543;50.712;6.070;2022-07-29T00:55:48;1.73;;;1.10;;
67747;SDS011;54543;50.712;6.070;2022-07-29T00:58:14;1.33;;;1.17;;
67747;SDS011;54543;50.712;6.070;2022-07-29T01:00:40;2.47;;;1.08;;
67747;SDS011;54543;50.712;6.070;2022-07-29T01:03:06;4.55;;;1.17;;
67747;SDS011;54543;50.712;6.070;2022-07-29T01:05:32;3.47;;;1.50;;
67747;SDS011;54543;50.712;6.070;2022-07-29T01:07:59;3.45;;;1.23;;
67747;SDS011;54543;50.712;6.070;2022-07-29T01:10:26;1.55;;;1.30;;
67747;SDS011;54543;50.712;6.070;2022-07-29T01:12:54;6.57;;;1.33;;
67747;SDS011;54543;50.712;6.070;2022-07-29T01:15:22;4.15;;;1.50;;
67747;SDS011;54543;50.712;6.070;2022-07-29T01:29:09;1.80;;;1.15;;
67747;SDS011;54543;50.712;6.070;2022-07-29T01:32:08;2.97;;;1.10;;
67747;SDS011;54543;50.712;6.070;2022-07-29T01:34:55;3.30;;;1.60;;
67747;SDS011;54543;50.712;6.070;2022-07-29T01:37:32;3.00;;;1.35;;
67747;SDS011;54543;50.712;6.070;2022-07-29T01:40:14;2.75;;;1.17;;
67747;SDS011;54543;50.712;6.070;2022-07-29T01:42:54;3.45;;;1.75;;
67747;SDS011;54543;50.712;6.070;2022-07-29T01:45:39;3.47;;;1.40;;
67747;SDS011;54543;50.712;6.070;2022-07-29T01:48:14;3.67;;;1.35;;
67747;SDS011;54543;50.712;6.070;2022-07-29T01:50:47;3.10;;;1.20;;
67747;SDS011;54543;50.712;6.070;2022-07-29T01:53:25;2.25;;;1.10;;
67747;SDS011;54543;50.712;6.070;2022-07-29T01:55:56;2.15;;;1.20;;
67747;SDS011;54543;50.712;6.070;2022-07-29T01:58:24;2.70;;;1.33;;
67747;SDS011;54543;50.712;6.070;2022-07-29T02:00:51;1.27;;;1.10;;
67747;SDS011;54543;50.712;6.070;2022-07-29T02:03:18;2.97;;;1.10;;
67747;SDS011;54543;50.712;6.070;2022-07-29T02:05:45;3.38;;;1.60;;
67747;SDS011;54543;50.712;6.070;2022-07-29T02:08:13;2.25;;;1.33;;
67747;SDS011;54543;50.712;6.070;2022-07-29T02:10:40;3.10;;;1.40;;
67747;SDS011;54543;50.712;6.070;2022-07-29T02:13:09;1.40;;;1.20;;
67747;SDS011;54543;50.712;6.070;2022-07-29T02:15:36;3.70;;;1.38;;
67747;SDS011;54543;50.712;6.070;2022-07-29T02:18:07;2.03;;;1.10;;
67747;SDS011;54543;50.712;6.070;2022-07-29T02:20:34;2.30;;;1.27;;
67747;SDS011;54543;50.712;6.070;2022-07-29T02:23:01;2.50;;;1.40;;
67747;SDS011;54543;50.712;6.070;2022-07-29T02:25:27;2.40;;;1.23;;
67747;SDS011;54543;50.712;6.070;2022-07-29T02:27:54;5.53;;;1.58;;
67747;SDS011;54543;50.712;6.070;2022-07-29T02:30:21;1.85;;;1.23;;
67747;SDS011;54543;50.712;6.070;2022-07-29T02:32:49;1.55;;;1.15;;
67747;SDS011;54543;50.712;6.070;2022-07-29T02:35:16;2.78;;;1.40;;
67747;SDS011;54543;50.712;6.070;2022-07-29T02:37:45;2.20;;;1.15;;
67747;SDS011;54543;50.712;6.070;2022-07-29T02:40:32;3.83;;;1.33;;
67747;SDS011;54543;50.712;6.070;2022-07-29T02:43:01;3.78;;;1.38;;
67747;SDS011;54543;50.712;6.070;2022-07-29T02:45:29;2.85;;;1.25;;
67747;SDS011;54543;50.712;6.070;2022-07-29T02:47:55;5.38;;;1.23;;
67747;SDS011;54543;50.712;6.070;2022-07-29T02:50:32;2.45;;;1.15;;
67747;SDS011;54543;50.712;6.070;2022-07-29T02:53:09;2.15;;;1.40;;
67747;SDS011;54543;50.712;6.070;2022-07-29T02:55:45;2.17;;;1.38;;
67747;SDS011;54543;50.712;6.070;2022-07-29T02:58:27;2.60;;;1.33;;
67747;SDS011;54543;50.712;6.070;2022-07-29T03:01:08;2.38;;;1.40;;
67747;SDS011;54543;50.712;6.070;2022-07-29T03:03:39;2.03;;;1.20;;
67747;SDS011;54543;50.712;6.070;2022-07-29T03:06:09;2.35;;;1.20;;
67747;SDS011;54543;50.712;6.070;2022-07-29T03:08:37;2.13;;;1.10;;
67747;SDS011;54543;50.712;6.070;2022-07-29T03:11:02;2.78;;;1.20;;
67747;SDS011;54543;50.712;6.070;2022-07-29T03:13:29;1.75;;;1.20;;
67747;SDS011;54543;50.712;6.070;2022-07-29T03:15:55;1.77;;;1.20;;
67747;SDS011;54543;50.712;6.070;2022-07-29T03:18:23;3.53;;;1.30;;
67747;SDS011;54543;50.712;6.070;2022-07-29T03:20:49;2.90;;;1.30;;
67747;SDS011;54543;50.712;6.070;2022-07-29T03:23:21;2.53;;;1.30;;
67747;SDS011;54543;50.712;6.070;2022-07-29T03:25:52;3.17;;;1.48;;
67747;SDS011;54543;50.712;6.070;2022-07-29T03:28:18;3.50;;;1.40;;
67747;SDS011;54543;50.712;6.070;2022-07-29T03:30:44;2.72;;;1.50;;
67747;SDS011;54543;50.712;6.070;2022-07-29T03:33:10;1.52;;;1.10;;
67747;SDS011;54543;50.712;6.070;2022-07-29T03:35:36;2.47;;;1.10;;
67747;SDS011;54543;50.712;6.070;2022-07-29T03:38:01;2.80;;;1.20;;
67747;SDS011;54543;50.712;6.070;2022-07-29T03:40:31;2.72;;;1.50;;
67747;SDS011;54543;50.712;6.070;2022-07-29T03:45:41;2.85;;;1.25;;
67747;SDS011;54543;50.712;6.070;2022-07-29T03:48:10;2.60;;;1.42;;
67747;SDS011;54543;50.712;6.070;2022-07-29T03:50:39;2.35;;;1.30;;
67747;SDS011;54543;50.712;6.070;2022-07-29T03:53:04;3.03;;;1.27;;
67747;SDS011;54543;50.712;6.070;2022-07-29T03:55:32;2.03;;;1.30;;
67747;SDS011;54543;50.712;6.070;2022-07-29T03:58:02;1.95;;;1.30;;
67747;SDS011;54543;50.712;6.070;2022-07-29T04:00:28;2.15;;;1.40;;
67747;SDS011;54543;50.712;6.070;2022-07-29T04:02:55;4.13;;;1.42;;
67747;SDS011;54543;50.712;6.070;2022-07-29T04:05:21;3.15;;;1.48;;
67747;SDS011;54543;50.712;6.070;2022-07-29T04:07:47;3.45;;;1.30;;
67747;SDS011;54543;50.712;6.070;2022-07-29T04:10:13;3.90;;;1.48;;
67747;SDS011;54543;50.712;6.070;2022-07-29T04:12:41;2.88;;;1.70;;
67747;SDS011;54543;50.712;6.070;2022-07-29T04:15:06;3.85;;;1.30;;
67747;SDS011;54543;50.712;6.070;2022-07-29T04:17:32;3.65;;;1.77;;
67747;SDS011;54543;50.712;6.070;2022-07-29T04:19:58;2.88;;;1.92;;
67747;SDS011;54543;50.712;6.070;2022-07-29T04:22:23;2.72;;;1.60;;
67747;SDS011;54543;50.712;6.070;2022-07-29T04:24:49;4.72;;;1.58;;
67747;SDS011;54543;50.712;6.070;2022-07-29T04:27:14;3.67;;;1.50;;
67747;SDS011;54543;50.712;6.070;2022-07-29T04:29:40;3.63;;;2.00;;
67747;SDS011;54543;50.712;6.070;2022-07-29T04:32:05;4.00;;;2.20;;
67747;SDS011;54543;50.712;6.070;2022-07-29T04:34:31;2.95;;;1.83;;
67747;SDS011;54543;50.712;6.070;2022-07-29T04:36:57;2.95;;;1.83;;
67747;SDS011;54543;50.712;6.070;2022-07-29T04:39:22;2.63;;;1.73;;
67747;SDS011;54543;50.712;6.070;2022-07-29T04:41:48;4.80;;;2.38;;
67747;SDS011;54543;50.712;6.070;2022-07-29T04:44:15;3.72;;;2.33;;
67747;SDS011;54543;50.712;6.070;2022-07-29T04:46:40;5.43;;;2.67;;
67747;SDS011;54543;50.712;6.070;2022-07-29T04:49:06;5.13;;;2.20;;
67747;SDS011;54543;50.712;6.070;2022-07-29T04:51:32;3.60;;;2.03;;
67747;SDS011;54543;50.712;6.070;2022-07-29T04:53:57;3.83;;;1.83;;
67747;SDS011;54543;50.712;6.070;2022-07-29T04:56:23;4.97;;;3.05;;
67747;SDS011;54543;50.712;6.070;2022-07-29T04:58:48;3.30;;;2.08;;
67747;SDS011;54543;50.712;6.070;2022-07-29T05:01:14;5.20;;;2.00;;
67747;SDS011;54543;50.712;6.070;2022-07-29T05:03:40;3.85;;;1.98;;
67747;SDS011;54543;50.712;6.070;2022-07-29T05:06:06;3.47;;;2.20;;
67747;SDS011;54543;50.712;6.070;2022-07-29T05:08:31;2.55;;;1.95;;
67747;SDS011;54543;50.712;6.070;2022-07-29T05:10:57;5.25;;;2.33;;
67747;SDS011;54543;50.712;6.070;2022-07-29T05:13:23;3.58;;;2.38;;
67747;SDS011;54543;50.712;6.070;2022-07-29T05:15:48;7.13;;;3.45;;
67747;SDS011;54543;50.712;6.070;2022-07-29T05:18:14;2.90;;;2.13;;
67747;SDS011;54543;50.712;6.070;2022-07-29T05:20:40;4.47;;;2.28;;
67747;SDS011;54543;50.712;6.070;2022-07-29T05:23:05;4.18;;;2.20;;
67747;SDS011;54543;50.712;6.070;2022-07-29T05:25:31;3.78;;;1.95;;
67747;SDS011;54543;50.712;6.070;2022-07-29T05:27:56;3.90;;;2.05;;
67747;SDS011;54543;50.712;6.070;2022-07-29T05:30:22;4.22;;;2.00;;
67747;SDS011;54543;50.712;6.070;2022-07-29T05:32:48;4.13;;;2.13;;
67747;SDS011;54543;50.712;6.070;2022-07-29T05:35:14;3.75;;;2.10;;
67747;SDS011;54543;50.712;6.070;2022-07-29T05:37:40;5.13;;;2.55;;
67747;SDS011;54543;50.712;6.070;2022-07-29T05:40:06;3.83;;;1.92;;
67747;SDS011;54543;50.712;6.070;2022-07-29T05:42:33;3.55;;;2.15;;
67747;SDS011;54543;50.712;6.070;2022-07-29T05:44:59;3.95;;;2.17;;
67747;SDS011;54543;50.712;6.070;2022-07-29T05:47:25;4.22;;;2.60;;
67747;SDS011;54543;50.712;6.070;2022-07-29T05:49:50;4.93;;;2.50;;
67747;SDS011;54543;50.712;6.070;2022-07-29T05:52:16;3.83;;;2.53;;
67747;SDS011;54543;50.712;6.070;2022-07-29T05:54:42;6.13;;;2.70;;
67747;SDS011;54543;50.712;6.070;2022-07-29T05:57:08;5.78;;;2.40;;
67747;SDS011;54543;50.712;6.070;2022-07-29T05:59:39;4.65;;;2.30;;
67747;SDS011;54543;50.712;6.070;2022-07-29T06:02:05;3.28;;;2.10;;
67747;SDS011;54543;50.712;6.070;2022-07-29T06:04:31;3.72;;;2.08;;
67747;SDS011;54543;50.712;6.070;2022-07-29T06:06:57;2.42;;;1.90;;
67747;SDS011;54543;50.712;6.070;2022-07-29T06:09:22;4.88;;;2.50;;
67747;SDS011;54543;50.712;6.070;2022-07-29T06:11:48;2.92;;;1.92;;
67747;SDS011;54543;50.712;6.070;2022-07-29T06:14:14;6.47;;;3.08;;
67747;SDS011;54543;50.712;6.070;2022-07-29T06:16:39;5.15;;;2.60;;
67747;SDS011;54543;50.712;6.070;2022-07-29T06:19:05;3.72;;;2.10;;
67747;SDS011;54543;50.712;6.070;2022-07-29T06:21:31;5.40;;;2.03;;
67747;SDS011;54543;50.712;6.070;2022-07-29T06:23:57;3.20;;;2.17;;
67747;SDS011;54543;50.712;6.070;2022-07-29T06:26:22;5.68;;;2.58;;
67747;SDS011;54543;50.712;6.070;2022-07-29T06:28:48;5.35;;;1.83;;
67747;SDS011;54543;50.712;6.070;2022-07-29T06:31:14;4.43;;;2.10;;
67747;SDS011;54543;50.712;6.070;2022-07-29T06:33:39;9.05;;;2.50;;
67747;SDS011;54543;50.712;6.070;2022-07-29T06:36:05;8.85;;;2.60;;
67747;SDS011;54543;50.712;6.070;2022-07-29T06:38:32;3.45;;;2.00;;
67747;SDS011;54543;50.712;6.070;2022-07-29T06:40:58;5.40;;;2.25;;
67747;SDS011;54543;50.712;6.070;2022-07-29T06:43:25;4.05;;;2.08;;
67747;SDS011;54543;50.712;6.070;2022-07-29T06:46:02;3.30;;;2.20;;
67747;SDS011;54543;50.712;6.070;2022-07-29T06:48:32;3.50;;;1.83;;
67747;SDS011;54543;50.712;6.070;2022-07-29T06:50:59;5.22;;;2.00;;
67747;SDS011;54543;50.712;6.070;2022-07-29T06:53:25;3.95;;;1.95;;
67747;SDS011;54543;50.712;6.070;2022-07-29T06:55:51;2.50;;;1.75;;
67747;SDS011;54543;50.712;6.070;2022-07-29T06:58:17;3.47;;;2.10;;
67747;SDS011;54543;50.712;6.070;2022-07-29T07:00:45;4.07;;;2.20;;
67747;SDS011;54543;50.712;6.070;2022-07-29T07:03:12;2.65;;;1.58;;
67747;SDS011;54543;50.712;6.070;2022-07-29T07:05:38;6.22;;;2.20;;
67747;SDS011;54543;50.712;6.070;2022-07-29T07:08:04;4.70;;;2.08;;
67747;SDS011;54543;50.712;6.070;2022-07-29T07:10:30;3.10;;;1.80;;
67747;SDS011;54543;50.712;6.070;2022-07-29T07:12:56;4.38;;;2.10;;
67747;SDS011;54543;50.712;6.070;2022-07-29T07:15:21;5.05;;;2.00;;
67747;SDS011;54543;50.712;6.070;2022-07-29T07:17:50;4.63;;;2.40;;
67747;SDS011;54543;50.712;6.070;2022-07-29T07:20:15;4.18;;;2.22;;
67747;SDS011;54543;50.712;6.070;2022-07-29T07:22:42;3.85;;;2.05;;
67747;SDS011;54543;50.712;6.070;2022-07-29T07:25:08;3.00;;;1.80;;
67747;SDS011;54543;50.712;6.070;2022-07-29T07:27:34;3.60;;;2.08;;
67747;SDS011;54543;50.712;6.070;2022-07-29T07:29:59;2.72;;;1.75;;
67747;SDS011;54543;50.712;6.070;2022-07-29T07:32:25;3.97;;;2.13;;
67747;SDS011;54543;50.712;6.070;2022-07-29T07:34:51;6.00;;;2.80;;
67747;SDS011;54543;50.712;6.070;2022-07-29T07:37:16;7.38;;;2.22;;
67747;SDS011;54543;50.712;6.070;2022-07-29T07:39:44;3.10;;;1.73;;
67747;SDS011;54543;50.712;6.070;2022-07-29T07:42:09;2.63;;;1.67;;
67747;SDS011;54543;50.712;6.070;2022-07-29T07:44:38;4.25;;;1.83;;
67747;SDS011;54543;50.712;6.070;2022-07-29T07:47:04;2.85;;;1.52;;
67747;SDS011;54543;50.712;6.070;2022-07-29T07:49:30;3.28;;;1.80;;
67747;SDS011;54543;50.712;6.070;2022-07-29T07:51:55;2.38;;;1.48;;
67747;SDS011;54543;50.712;6.070;2022-07-29T07:54:21;3.13;;;1.52;;
67747;SDS011;54543;50.712;6.070;2022-07-29T07:56:47;3.78;;;1.90;;
67747;SDS011;54543;50.712;6.070;2022-07-29T07:59:15;5.53;;;1.90;;
67747;SDS011;54543;50.712;6.070;2022-07-29T08:01:41;5.68;;;1.80;;
67747;SDS011;54543;50.712;6.070;2022-07-29T08:04:07;3.08;;;1.90;;
67747;SDS011;54543;50.712;6.070;2022-07-29T08:06:33;4.82;;;1.92;;
67747;SDS011;54543;50.712;6.070;2022-07-29T08:09:01;3.47;;;1.80;;
67747;SDS011;54543;50.712;6.070;2022-07-29T08:11:27;4.65;;;1.52;;
67747;SDS011;54543;50.712;6.070;2022-07-29T08:13:53;3.72;;;1.63;;
67747;SDS011;54543;50.712;6.070;2022-07-29T08:16:19;3.15;;;1.70;;
67747;SDS011;54543;50.712;6.070;2022-07-29T08:18:45;2.78;;;1.63;;
67747;SDS011;54543;50.712;6.070;2022-07-29T08:21:12;5.88;;;1.80;;
67747;SDS011;54543;50.712;6.070;2022-07-29T08:23:42;3.42;;;1.80;;
67747;SDS011;54543;50.712;6.070;2022-07-29T08:26:12;1.90;;;1.52;;
67747;SDS011;54543;50.712;6.070;2022-07-29T08:28:42;4.60;;;1.95;;
67747;SDS011;54543;50.712;6.070;2022-07-29T08:31:11;2.50;;;1.60;;
67747;SDS011;54543;50.712;6.070;2022-07-29T08:33:37;2.22;;;1.40;;
67747;SDS011;54543;50.712;6.070;2022-07-29T08:36:03;2.88;;;1.77;;
67747;SDS011;54543;50.712;6.070;2022-07-29T08:38:29;4.75;;;2.00;;
67747;SDS011;54543;50.712;6.070;2022-07-29T08:40:55;2.50;;;1.50;;
67747;SDS011;54543;50.712;6.070;2022-07-29T08:43:20;3.90;;;1.50;;
67747;SDS011;54543;50.712;6.070;2022-07-29T08:45:47;2.38;;;1.40;;
67747;SDS011;54543;50.712;6.070;2022-07-29T08:48:16;3.20;;;1.70;;
67747;SDS011;54543;50.712;6.070;2022-07-29T08:50:43;4.28;;;1.60;;
67747;SDS011;54543;50.712;6.070;2022-07-29T08:53:14;5.57;;;2.70;;
67747;SDS011;54543;50.712;6.070;2022-07-29T08:55:45;4.25;;;2.20;;
67747;SDS011;54543;50.712;6.070;2022-07-29T08:58:13;3.63;;;2.28;;
67747;SDS011;54543;50.712;6.070;2022-07-29T09:00:43;7.50;;;2.58;;
67747;SDS011;54543;50.712;6.070;2022-07-29T09:03:12;7.43;;;2.30;;
67747;SDS011;54543;50.712;6.070;2022-07-29T09:05:42;2.72;;;1.65;;
67747;SDS011;54543;50.712;6.070;2022-07-29T09:08:08;10.32;;;7.00;;
67747;SDS011;54543;50.712;6.070;2022-07-29T09:10:37;9.18;;;6.13;;
67747;SDS011;54543;50.712;6.070;2022-07-29T09:13:03;15.50;;;12.35;;
67747;SDS011;54543;50.712;6.070;2022-07-29T09:15:28;16.27;;;13.23;;
67747;SDS011;54543;50.712;6.070;2022-07-29T09:17:54;28.45;;;22.95;;
67747;SDS011;54543;50.712;6.070;2022-07-29T09:20:21;27.92;;;23.60;;
67747;SDS011;54543;50.712;6.070;2022-07-29T09:22:48;17.35;;;11.90;;
67747;SDS011;54543;50.712;6.070;2022-07-29T09:28:14;30.67;;;26.13;;
67747;SDS011;54543;50.712;6.070;2022-07-29T09:30:53;12.68;;;8.18;;
67747;SDS011;54543;50.712;6.070;2022-07-29T09:33:22;14.63;;;11.30;;
67747;SDS011;54543;50.712;6.070;2022-07-29T09:36:07;12.90;;;10.70;;
67747;SDS011;54543;50.712;6.070;2022-07-29T09:38:34;10.75;;;7.30;;
67747;SDS011;54543;50.712;6.070;2022-07-29T09:41:02;16.63;;;13.73;;
67747;SDS011;54543;50.712;6.070;2022-07-29T09:43:29;11.75;;;9.55;;
67747;SDS011;54543;50.712;6.070;2022-07-29T09:45:54;13.85;;;10.88;;
67747;SDS011;54543;50.712;6.070;2022-07-29T09:48:21;28.23;;;22.13;;
67747;SDS011;54543;50.712;6.070;2022-07-29T09:50:49;11.60;;;9.43;;
67747;SDS011;54543;50.712;6.070;2022-07-29T09:53:32;16.88;;;10.40;;
67747;SDS011;54543;50.712;6.070;2022-07-29T09:56:02;11.93;;;9.63;;
67747;SDS011;54543;50.712;6.070;2022-07-29T09:58:31;30.73;;;27.52;;
67747;SDS011;54543;50.712;6.070;2022-07-29T10:00:59;36.55;;;31.77;;
67747;SDS011;54543;50.712;6.070;2022-07-29T10:03:25;16.13;;;13.43;;
67747;SDS011;54543;50.712;6.070;2022-07-29T10:08:48;13.55;;;11.07;;
67747;SDS011;54543;50.712;6.070;2022-07-29T10:11:15;10.35;;;7.38;;
67747;SDS011;54543;50.712;6.070;2022-07-29T10:13:43;8.07;;;4.63;;
67747;SDS011;54543;50.712;6.070;2022-07-29T10:16:10;5.43;;;3.45;;
67747;SDS011;54543;50.712;6.070;2022-07-29T10:18:40;4.05;;;2.72;;
67747;SDS011;54543;50.712;6.070;2022-07-29T10:21:07;5.18;;;3.67;;
67747;SDS011;54543;50.712;6.070;2022-07-29T10:23:33;5.70;;;2.65;;
67747;SDS011;54543;50.712;6.070;2022-07-29T10:25:59;7.70;;;5.05;;
67747;SDS011;54543;50.712;6.070;2022-07-29T10:28:26;6.05;;;3.60;;
67747;SDS011;54543;50.712;6.070;2022-07-29T10:30:52;5.05;;;3.20;;
67747;SDS011;54543;50.712;6.070;2022-07-29T10:38:45;8.75;;;5.53;;
67747;SDS011;54543;50.712;6.070;2022-07-29T10:43:51;8.10;;;5.93;;
67747;SDS011;54543;50.712;6.070;2022-07-29T10:46:37;5.88;;;4.47;;
67747;SDS011;54543;50.712;6.070;2022-07-29T10:49:07;4.22;;;3.42;;
67747;SDS011;54543;50.712;6.070;2022-07-29T10:59:42;5.45;;;3.88;;
67747;SDS011;54543;50.712;6.070;2022-07-29T11:04:59;8.98;;;5.97;;
67747;SDS011;54543;50.712;6.070;2022-07-29T11:07:25;8.93;;;6.68;;
67747;SDS011;54543;50.712;6.070;2022-07-29T11:15:15;6.63;;;4.40;;
67747;SDS011;54543;50.712;6.070;2022-07-29T11:20:34;10.57;;;8.60;;
67747;SDS011;54543;50.712;6.070;2022-07-29T11:23:27;7.00;;;4.60;;
67747;SDS011;54543;50.712;6.070;2022-07-29T11:26:17;6.50;;;3.50;;
67747;SDS011;54543;50.712;6.070;2022-07-29T11:34:23;6.53;;;3.10;;
67747;SDS011;54543;50.712;6.070;2022-07-29T11:45:05;4.55;;;2.80;;
67747;SDS011;54543;50.712;6.070;2022-07-29T11:50:06;5.78;;;3.75;;
67747;SDS011;54543;50.712;6.070;2022-07-29T11:52:35;6.45;;;4.88;;
67747;SDS011;54543;50.712;6.070;2022-07-29T11:55:08;8.13;;;6.75;;
67747;SDS011;54543;50.712;6.070;2022-07-29T11:57:35;6.80;;;4.50;;
67747;SDS011;54543;50.712;6.070;2022-07-29T12:00:01;5.57;;;4.30;;
67747;SDS011;54543;50.712;6.070;2022-07-29T12:02:46;4.60;;;3.10;;
67747;SDS011;54543;50.712;6.070;2022-07-29T12:05:12;4.85;;;2.63;;
67747;SDS011;54543;50.712;6.070;2022-07-29T12:07:37;3.95;;;3.40;;
67747;SDS011;54543;50.712;6.070;2022-07-29T12:10:04;4.82;;;2.65;;
67747;SDS011;54543;50.712;6.070;2022-07-29T12:12:30;5.13;;;3.80;;
67747;SDS011;54543;50.712;6.070;2022-07-29T12:14:56;8.80;;;7.82;;
67747;SDS011;54543;50.712;6.070;2022-07-29T12:17:32;6.40;;;4.85;;
67747;SDS011;54543;50.712;6.070;2022-07-29T12:20:00;6.13;;;4.78;;
67747;SDS011;54543;50.712;6.070;2022-07-29T12:22:45;10.43;;;8.20;;
67747;SDS011;54543;50.712;6.070;2022-07-29T12:25:13;10.13;;;6.50;;
67747;SDS011;54543;50.712;6.070;2022-07-29T12:27:41;7.95;;;6.35;;
67747;SDS011;54543;50.712;6.070;2022-07-29T12:30:11;7.93;;;6.18;;
67747;SDS011;54543;50.712;6.070;2022-07-29T12:32:39;5.95;;;4.22;;
67747;SDS011;54543;50.712;6.070;2022-07-29T12:35:10;5.57;;;4.00;;
67747;SDS011;54543;50.712;6.070;2022-07-29T12:37:39;4.63;;;3.30;;
67747;SDS011;54543;50.712;6.070;2022-07-29T12:40:07;3.75;;;2.80;;
67747;SDS011;54543;50.712;6.070;2022-07-29T12:42:34;4.65;;;2.50;;
67747;SDS011;54543;50.712;6.070;2022-07-29T12:45:00;4.72;;;2.47;;
67747;SDS011;54543;50.712;6.070;2022-07-29T12:47:27;3.40;;;2.53;;
67747;SDS011;54543;50.712;6.070;2022-07-29T12:50:11;2.85;;;2.30;;
67747;SDS011;54543;50.712;6.070;2022-07-29T12:52:43;6.65;;;3.67;;
67747;SDS011;54543;50.712;6.070;2022-07-29T12:55:10;3.67;;;2.70;;
67747;SDS011;54543;50.712;6.070;2022-07-29T13:00:21;4.88;;;2.53;;
67747;SDS011;54543;50.712;6.070;2022-07-29T13:02:54;4.43;;;3.53;;
67747;SDS011;54543;50.712;6.070;2022-07-29T13:05:22;5.10;;;2.80;;
67747;SDS011;54543;50.712;6.070;2022-07-29T13:07:47;4.88;;;2.70;;
67747;SDS011;54543;50.712;6.070;2022-07-29T13:10:17;4.20;;;2.35;;
67747;SDS011;54543;50.712;6.070;2022-07-29T13:15:40;3.75;;;2.08;;
67747;SDS011;54543;50.712;6.070;2022-07-29T13:18:26;2.78;;;2.08;;
67747;SDS011;54543;50.712;6.070;2022-07-29T13:20:55;2.80;;;2.10;;
67747;SDS011;54543;50.712;6.070;2022-07-29T13:23:21;2.90;;;2.03;;
67747;SDS011;54543;50.712;6.070;2022-07-29T13:25:47;6.22;;;2.42;;
67747;SDS011;54543;50.712;6.070;2022-07-29T13:28:13;3.20;;;2.40;;
67747;SDS011;54543;50.712;6.070;2022-07-29T13:30:41;4.95;;;2.20;;
67747;SDS011;54543;50.712;6.070;2022-07-29T13:33:07;5.07;;;2.95;;
67747;SDS011;54543;50.712;6.070;2022-07-29T13:35:33;3.08;;;1.85;;
67747;SDS011;54543;50.712;6.070;2022-07-29T13:37:58;3.13;;;2.42;;
67747;SDS011;54543;50.712;6.070;2022-07-29T13:40:24;3.97;;;2.00;;
67747;SDS011;54543;50.712;6.070;2022-07-29T13:42:51;3.03;;;2.17;;
67747;SDS011;54543;50.712;6.070;2022-07-29T13:45:16;4.25;;;2.47;;
67747;SDS011;54543;50.712;6.070;2022-07-29T13:47:42;4.93;;;2.20;;
67747;SDS011;54543;50.712;6.070;2022-07-29T13:50:08;2.67;;;1.92;;
67747;SDS011;54543;50.712;6.070;2022-07-29T13:52:35;3.40;;;2.30;;
67747;SDS011;54543;50.712;6.070;2022-07-29T13:55:01;2.70;;;2.25;;
67747;SDS011;54543;50.712;6.070;2022-07-29T13:57:27;3.15;;;2.20;;
67747;SDS011;54543;50.712;6.070;2022-07-29T13:59:53;4.47;;;2.45;;
67747;SDS011;54543;50.712;6.070;2022-07-29T14:02:19;2.38;;;2.08;;
67747;SDS011;54543;50.712;6.070;2022-07-29T14:04:45;3.20;;;1.95;;
67747;SDS011;54543;50.712;6.070;2022-07-29T14:07:11;3.88;;;2.20;;
67747;SDS011;54543;50.712;6.070;2022-07-29T14:09:37;3.75;;;2.80;;
67747;SDS011;54543;50.712;6.070;2022-07-29T14:12:03;4.93;;;2.65;;
67747;SDS011;54543;50.712;6.070;2022-07-29T14:14:29;3.92;;;2.40;;
67747;SDS011;54543;50.712;6.070;2022-07-29T14:16:56;3.22;;;2.63;;
67747;SDS011;54543;50.712;6.070;2022-07-29T14:19:22;4.35;;;2.88;;
67747;SDS011;54543;50.712;6.070;2022-07-29T14:21:47;6.10;;;2.85;;
67747;SDS011;54543;50.712;6.070;2022-07-29T14:24:13;2.90;;;2.30;;
67747;SDS011;54543;50.712;6.070;2022-07-29T14:26:38;2.22;;;2.00;;
67747;SDS011;54543;50.712;6.070;2022-07-29T14:29:04;2.70;;;2.00;;
67747;SDS011;54543;50.712;6.070;2022-07-29T14:31:30;2.97;;;2.10;;
67747;SDS011;54543;50.712;6.070;2022-07-29T14:33:55;4.90;;;2.30;;
67747;SDS011;54543;50.712;6.070;2022-07-29T14:36:21;6.10;;;1.90;;
67747;SDS011;54543;50.712;6.070;2022-07-29T14:38:46;2.33;;;1.90;;
67747;SDS011;54543;50.712;6.070;2022-07-29T14:41:12;4.60;;;2.50;;
67747;SDS011;54543;50.712;6.070;2022-07-29T14:43:37;4.60;;;2.40;;
67747;SDS011;54543;50.712;6.070;2022-07-29T14:46:03;4.68;;;2.03;;
67747;SDS011;54543;50.712;6.070;2022-07-29T14:48:28;2.42;;;2.00;;
67747;SDS011;54543;50.712;6.070;2022-07-29T14:50:54;2.70;;;2.00;;
67747;SDS011;54543;50.712;6.070;2022-07-29T14:53:21;2.47;;;1.95;;
67747;SDS011;54543;50.712;6.070;2022-07-29T14:55:47;2.42;;;2.22;;
67747;SDS011;54543;50.712;6.070;2022-07-29T14:58:12;2.72;;;2.05;;
67747;SDS011;54543;50.712;6.070;2022-07-29T15:00:39;2.63;;;2.00;;
67747;SDS011;54543;50.712;6.070;2022-07-29T15:03:04;3.70;;;2.40;;
67747;SDS011;54543;50.712;6.070;2022-07-29T15:05:30;2.92;;;1.98;;
67747;SDS011;54543;50.712;6.070;2022-07-29T15:07:56;3.40;;;2.17;;
67747;SDS011;54543;50.712;6.070;2022-07-29T15:10:22;3.90;;;2.70;;
67747;SDS011;54543;50.712;6.070;2022-07-29T15:12:48;3.20;;;2.20;;
67747;SDS011;54543;50.712;6.070;2022-07-29T15:15:13;2.83;;;1.90;;
67747;SDS011;54543;50.712;6.070;2022-07-29T15:17:39;3.03;;;2.10;;
67747;SDS011;54543;50.712;6.070;2022-07-29T15:20:05;1.88;;;1.70;;
67747;SDS011;54543;50.712;6.070;2022-07-29T15:22:31;2.28;;;1.90;;
67747;SDS011;54543;50.712;6.070;2022-07-29T15:24:56;1.83;;;1.70;;
67747;SDS011;54543;50.712;6.070;2022-07-29T15:27:23;2.13;;;1.60;;
67747;SDS011;54543;50.712;6.070;2022-07-29T15:29:51;2.70;;;1.70;;
67747;SDS011;54543;50.712;6.070;2022-07-29T15:32:17;2.45;;;1.77;;
67747;SDS011;54543;50.712;6.070;2022-07-29T15:34:42;2.00;;;1.80;;
67747;SDS011;54543;50.712;6.070;2022-07-29T15:37:08;2.80;;;2.13;;
67747;SDS011;54543;50.712;6.070;2022-07-29T15:39:35;3.10;;;2.20;;
67747;SDS011;54543;50.712;6.070;2022-07-29T15:42:02;2.28;;;1.98;;
67747;SDS011;54543;50.712;6.070;2022-07-29T15:44:28;3.45;;;2.25;;
67747;SDS011;54543;50.712;6.070;2022-07-29T15:46:53;2.65;;;2.25;;
67747;SDS011;54543;50.712;6.070;2022-07-29T15:49:28;2.00;;;1.80;;
67747;SDS011;54543;50.712;6.070;2022-07-29T15:51:59;3.38;;;1.88;;
67747;SDS011;54543;50.712;6.070;2022-07-29T15:54:26;2.40;;;1.95;;
67747;SDS011;54543;50.712;6.070;2022-07-29T15:56:52;3.17;;;1.92;;
67747;SDS011;54543;50.712;6.070;2022-07-29T15:59:18;2.80;;;2.10;;